Time;durP1;ratioP1;P1;durP2;ratioP2;P2;SDS_P1;SDS_P2;PMS_P1;PMS_P2;Temp;Humidity;BMP_temperature;BMP_pressure;BME280_temperature;BME280_humidity;BME280_pressure;Samples;Min_cycle;Max_cycle;Signal;HPM_P1;HPM_P2
2023/04/14 00:01:47;;;;;;;13.60;2.53;;;5.50;99.90;;;;;;4886318;29;37141;-76
2023/04/14 00:04:13;;;;;;;12.43;2.33;;;5.40;99.90;;;;;;4908884;29;37569;-76
2023/04/14 00:06:39;;;;;;;14.73;3.03;;;5.40;99.90;;;;;;4879130;29;37717;-76
2023/04/14 00:09:05;;;;;;;21.23;2.90;;;5.40;99.90;;;;;;4879505;29;37658;-76
2023/04/14 00:11:31;;;;;;;11.47;2.47;;;5.40;99.90;;;;;;4894143;29;35914;-76
2023/04/14 00:14:00;;;;;;;15.37;2.50;;;5.40;99.90;;;;;;4901380;29;37865;-76
2023/04/14 00:16:26;;;;;;;13.10;2.97;;;5.30;99.90;;;;;;4911877;29;38437;-75
2023/04/14 00:18:52;;;;;;;13.83;2.73;;;5.20;99.90;;;;;;4893527;29;38309;-75
2023/04/14 00:21:18;;;;;;;8.87;2.60;;;5.20;99.90;;;;;;4899787;29;36106;-75
2023/04/14 00:23:44;;;;;;;10.73;2.60;;;5.20;99.90;;;;;;4897539;29;39326;-75
2023/04/14 00:26:10;;;;;;;14.17;3.17;;;5.20;99.90;;;;;;4918692;29;38197;-75
2023/04/14 00:28:36;;;;;;;13.73;2.60;;;5.10;99.90;;;;;;4906403;29;38081;-75
2023/04/14 00:31:03;;;;;;;15.63;2.67;;;5.20;99.90;;;;;;4907898;29;37626;-76
2023/04/14 00:33:29;;;;;;;20.33;2.37;;;5.20;99.90;;;;;;4899444;29;37571;-75
2023/04/14 00:35:56;;;;;;;14.23;2.70;;;5.20;99.90;;;;;;4896049;29;37995;-75
2023/04/14 00:38:22;;;;;;;10.50;2.47;;;5.30;99.90;;;;;;4899521;29;37291;-76
2023/04/14 00:40:48;;;;;;;21.60;2.70;;;5.60;99.90;;;;;;4893714;29;35994;-76
2023/04/14 00:43:18;;;;;;;12.03;2.63;;;5.60;99.90;;;;;;4904055;29;37474;-76
2023/04/14 00:45:48;;;;;;;8.87;2.50;;;5.50;99.90;;;;;;4893662;29;38007;-76
2023/04/14 00:48:15;;;;;;;13.37;2.87;;;5.50;99.90;;;;;;4896043;29;37249;-76
2023/04/14 00:50:42;;;;;;;11.63;3.03;;;5.50;99.90;;;;;;4892277;29;36166;-76
2023/04/14 00:53:09;;;;;;;14.03;2.80;;;5.50;99.90;;;;;;4896429;29;38055;-77
2023/04/14 00:55:37;;;;;;;16.07;3.37;;;5.60;99.90;;;;;;4899487;29;39275;-77
2023/04/14 00:58:03;;;;;;;19.03;3.30;;;5.70;99.90;;;;;;4907360;29;38214;-76
2023/04/14 01:03:06;;;;;;;16.37;3.10;;;5.60;99.90;;;;;;5253931;23;20243;-75
2023/04/14 01:05:33;;;;;;;14.60;2.80;;;5.60;99.90;;;;;;4913303;29;37776;-75
2023/04/14 01:08:00;;;;;;;15.07;2.87;;;5.50;99.90;;;;;;4918378;29;38572;-75
2023/04/14 01:10:33;;;;;;;15.57;2.63;;;5.60;99.90;;;;;;4911842;29;38187;-76
2023/04/14 01:13:32;;;;;;;16.93;2.90;;;5.70;99.90;;;;;;4906551;29;37887;-76
2023/04/14 01:16:13;;;;;;;12.20;3.40;;;5.70;99.90;;;;;;4910485;29;47631;-76
2023/04/14 01:19:09;;;;;;;18.83;3.47;;;5.70;99.90;;;;;;4888663;29;47403;-77
2023/04/14 01:21:40;;;;;;;17.83;3.00;;;5.80;99.90;;;;;;4912658;29;48669;-76
2023/04/14 01:24:25;;;;;;;16.27;3.00;;;6.00;99.90;;;;;;4918355;29;38365;-76
2023/04/14 01:27:05;;;;;;;20.93;2.60;;;6.10;99.90;;;;;;4899574;29;38995;-76
2023/04/14 01:29:43;;;;;;;13.60;2.60;;;6.10;99.90;;;;;;4889792;29;47222;-78
2023/04/14 01:32:13;;;;;;;9.93;2.53;;;6.00;99.90;;;;;;4918389;29;37219;-77
2023/04/14 01:35:02;;;;;;;11.20;2.83;;;6.00;99.90;;;;;;4917538;29;39084;-77
2023/04/14 01:37:33;;;;;;;18.80;3.00;;;5.90;99.90;;;;;;4911884;29;38187;-74
2023/04/14 01:40:06;;;;;;;12.33;2.70;;;5.90;99.90;;;;;;4901750;29;37418;-76
2023/04/14 01:42:35;;;;;;;18.30;3.20;;;5.80;99.90;;;;;;4913905;29;49129;-75
2023/04/14 01:45:09;;;;;;;17.87;2.87;;;5.70;99.90;;;;;;4902460;29;37504;-75
2023/04/14 01:47:36;;;;;;;15.33;3.30;;;5.60;99.90;;;;;;4915872;29;47422;-76
2023/04/14 01:50:04;;;;;;;16.90;3.40;;;5.60;99.90;;;;;;4897739;29;37396;-76
2023/04/14 01:52:31;;;;;;;13.37;3.47;;;5.70;99.90;;;;;;4900457;29;48871;-76
2023/04/14 01:55:00;;;;;;;24.23;4.30;;;5.60;99.90;;;;;;4900968;29;37473;-76
2023/04/14 01:57:28;;;;;;;15.57;3.67;;;5.60;99.90;;;;;;4920064;29;38803;-76
2023/04/14 01:59:58;;;;;;;12.70;3.37;;;5.70;99.90;;;;;;4917334;29;38398;-75
2023/04/14 02:02:25;;;;;;;14.90;3.30;;;5.70;99.90;;;;;;4898613;29;35759;-77
2023/04/14 02:04:52;;;;;;;18.00;3.53;;;5.60;99.90;;;;;;4914802;29;39113;-77
2023/04/14 02:07:20;;;;;;;12.93;3.40;;;5.50;99.90;;;;;;4898764;29;37505;-75
2023/04/14 02:09:48;;;;;;;14.97;3.70;;;5.50;99.90;;;;;;4901229;29;37628;-75
2023/04/14 02:12:18;;;;;;;23.90;4.23;;;5.50;99.90;;;;;;4898607;29;35930;-76
2023/04/14 02:14:45;;;;;;;14.30;3.83;;;5.60;99.90;;;;;;4895924;29;37664;-76
2023/04/14 02:17:13;;;;;;;13.37;3.97;;;5.60;99.90;;;;;;4909776;29;37734;-77
2023/04/14 02:19:42;;;;;;;14.63;4.10;;;5.60;99.90;;;;;;4914600;29;36501;-76
2023/04/14 02:22:09;;;;;;;16.90;3.87;;;5.70;99.90;;;;;;4896986;29;36310;-76
2023/04/14 02:24:35;;;;;;;14.87;4.20;;;5.70;99.90;;;;;;4913221;29;38856;-76
2023/04/14 02:27:17;;;;;;;20.40;4.40;;;5.80;99.90;;;;;;4916691;29;38978;-76
2023/04/14 02:29:51;;;;;;;14.60;4.47;;;5.90;99.90;;;;;;4905639;29;38229;-76
2023/04/14 02:32:26;;;;;;;20.23;5.03;;;5.90;99.90;;;;;;4911950;29;37904;-76
2023/04/14 02:35:05;;;;;;;18.50;5.20;;;5.90;99.90;;;;;;4902349;29;36217;-75
2023/04/14 02:37:36;;;;;;;17.00;5.60;;;5.80;99.90;;;;;;4911337;28;48742;-76
2023/04/14 02:40:11;;;;;;;17.00;4.97;;;5.80;99.90;;;;;;4911379;29;37341;-77
2023/04/14 02:42:40;;;;;;;21.70;5.73;;;5.90;99.90;;;;;;4913445;29;36922;-76
2023/04/14 02:45:12;;;;;;;18.77;5.67;;;5.80;99.90;;;;;;4899111;29;37824;-77
2023/04/14 02:47:43;;;;;;;18.77;5.85;;;5.80;99.90;;;;;;4902556;29;37764;-76
2023/04/14 02:50:13;;;;;;;20.60;5.60;;;5.80;99.90;;;;;;4904513;29;37482;-76
2023/04/14 02:52:42;;;;;;;19.07;6.67;;;5.80;99.90;;;;;;4899371;29;37254;-77
2023/04/14 02:55:10;;;;;;;20.53;6.23;;;5.70;99.90;;;;;;4902481;29;37923;-76
2023/04/14 02:57:37;;;;;;;25.27;6.73;;;5.80;99.90;;;;;;4901488;29;37592;-76
2023/04/14 03:00:04;;;;;;;22.97;7.03;;;5.80;99.90;;;;;;4917414;29;39675;-76
2023/04/14 03:02:32;;;;;;;17.80;6.30;;;5.80;99.90;;;;;;4897327;29;36321;-76
2023/04/14 03:04:59;;;;;;;24.40;7.43;;;5.70;99.90;;;;;;4899212;29;38512;-77
2023/04/14 03:07:28;;;;;;;25.83;8.27;;;5.70;99.90;;;;;;4902326;29;38886;-76
2023/04/14 03:09:54;;;;;;;25.90;7.33;;;5.70;99.90;;;;;;4896124;29;37055;-76
2023/04/14 03:12:25;;;;;;;25.47;7.57;;;5.70;99.90;;;;;;4896274;29;38454;-76
2023/04/14 03:14:52;;;;;;;26.73;7.23;;;5.60;99.90;;;;;;4880976;29;38207;-76
2023/04/14 03:17:20;;;;;;;26.53;7.77;;;5.60;99.90;;;;;;4878697;29;42088;-77
2023/04/14 03:19:48;;;;;;;27.00;9.07;;;5.70;99.90;;;;;;4878646;29;38018;-77
2023/04/14 03:22:16;;;;;;;33.37;7.90;;;5.60;99.90;;;;;;4890127;29;37106;-76
2023/04/14 03:24:43;;;;;;;33.60;8.97;;;5.70;99.90;;;;;;4894387;29;38978;-77
2023/04/14 03:27:26;;;;;;;25.80;8.67;;;5.70;99.90;;;;;;4896271;29;39028;-76
2023/04/14 03:29:57;;;;;;;30.33;8.63;;;5.60;99.90;;;;;;4893028;29;38601;-76
2023/04/14 03:32:28;;;;;;;26.57;7.33;;;5.50;99.90;;;;;;4874118;29;38125;-76
2023/04/14 03:34:57;;;;;;;31.20;7.93;;;5.40;99.90;;;;;;4895737;29;37535;-76
2023/04/14 03:37:27;;;;;;;36.03;9.43;;;5.40;99.90;;;;;;4892437;29;38095;-76
2023/04/14 03:40:00;;;;;;;27.37;8.03;;;5.40;99.90;;;;;;4899714;29;37483;-75
2023/04/14 03:42:27;;;;;;;;;;;5.40;99.90;;;;;;4880146;29;35282;-77
2023/04/14 03:44:56;;;;;;;25.20;7.57;;;5.40;99.90;;;;;;4880745;29;37889;-76
2023/04/14 03:47:23;;;;;;;29.03;8.30;;;5.30;99.90;;;;;;4894300;29;38627;-76
2023/04/14 03:49:55;;;;;;;27.93;8.77;;;5.20;99.90;;;;;;4884813;29;38489;-76
2023/04/14 03:52:23;;;;;;;26.05;7.65;;;5.10;99.90;;;;;;4879402;29;37022;-76
2023/04/14 03:54:52;;;;;;;19.83;7.20;;;5.10;99.90;;;;;;4894654;29;37632;-76
2023/04/14 03:57:21;;;;;;;21.17;6.70;;;5.10;99.90;;;;;;4892147;29;39864;-75
2023/04/14 03:59:49;;;;;;;22.63;7.63;;;5.00;99.90;;;;;;4895824;29;38702;-75
2023/04/14 04:02:17;;;;;;;24.47;6.90;;;4.90;99.90;;;;;;4878622;29;36156;-77
2023/04/14 04:04:44;;;;;;;26.07;9.50;;;5.00;99.90;;;;;;4884215;29;38013;-77
2023/04/14 04:07:12;;;;;;;28.33;7.27;;;5.00;99.90;;;;;;4894381;29;39904;-77
2023/04/14 04:09:40;;;;;;;27.27;8.00;;;4.90;99.90;;;;;;4892134;29;37323;-78
2023/04/14 04:12:08;;;;;;;23.07;7.00;;;4.70;99.90;;;;;;4879032;29;36714;-76
2023/04/14 04:14:39;;;;;;;20.17;7.23;;;4.50;99.90;;;;;;4892546;29;38782;-76
2023/04/14 04:17:07;;;;;;;23.10;6.77;;;4.30;99.90;;;;;;4902548;29;38859;-75
2023/04/14 04:19:35;;;;;;;20.30;6.97;;;4.10;99.90;;;;;;4895226;29;38357;-76
2023/04/14 04:22:03;;;;;;;26.67;7.97;;;4.00;99.90;;;;;;4883889;29;36160;-78
2023/04/14 04:24:33;;;;;;;22.60;8.43;;;4.00;99.90;;;;;;4880967;29;47655;-77
2023/04/14 04:27:00;;;;;;;30.00;10.17;;;3.90;99.90;;;;;;4899543;29;40299;-76
2023/04/14 04:29:26;;;;;;;27.47;8.30;;;3.90;99.90;;;;;;4883559;29;37386;-76
2023/04/14 04:31:52;;;;;;;34.23;9.10;;;3.90;99.90;;;;;;4876430;29;36211;-76
2023/04/14 04:34:19;;;;;;;33.13;9.23;;;3.90;99.90;;;;;;4894619;29;38943;-77
2023/04/14 04:36:46;;;;;;;28.77;8.97;;;4.00;99.90;;;;;;4883753;29;37762;-77
2023/04/14 04:39:13;;;;;;;26.77;8.83;;;4.00;99.90;;;;;;4901455;29;38673;-76
2023/04/14 04:41:39;;;;;;;38.83;10.33;;;4.10;99.90;;;;;;4883886;29;37449;-77
2023/04/14 04:44:05;;;;;;;34.60;9.80;;;4.10;99.90;;;;;;4902781;29;39709;-77
2023/04/14 04:46:52;;;;;;;34.67;10.53;;;4.20;99.90;;;;;;4878494;29;37939;-78
2023/04/14 04:49:18;;;;;;;43.17;11.63;;;4.30;99.90;;;;;;4886573;29;37900;-77
2023/04/14 04:51:44;;;;;;;39.07;11.27;;;4.30;99.90;;;;;;4892855;29;37210;-77
2023/04/14 04:54:11;;;;;;;36.33;11.50;;;4.30;99.90;;;;;;4897031;29;39044;-77
2023/04/14 04:56:37;;;;;;;35.00;12.73;;;4.30;99.90;;;;;;4886146;29;38616;-78
2023/04/14 04:59:03;;;;;;;34.23;12.17;;;4.30;99.90;;;;;;4893849;29;40078;-77
2023/04/14 05:01:30;;;;;;;28.33;10.87;;;4.30;99.90;;;;;;4879034;29;36698;-78
2023/04/14 05:03:56;;;;;;;31.63;11.53;;;4.30;99.90;;;;;;4877307;29;39057;-77
2023/04/14 05:06:22;;;;;;;34.23;10.77;;;4.30;99.90;;;;;;4891486;29;37605;-78
2023/04/14 05:08:52;;;;;;;35.33;11.67;;;4.20;99.90;;;;;;4887439;29;38558;-78
2023/04/14 05:11:18;;;;;;;34.47;10.50;;;4.30;99.90;;;;;;4889024;29;37463;-78
2023/04/14 05:13:44;;;;;;;36.17;11.13;;;4.30;99.90;;;;;;4878411;29;35913;-76
2023/04/14 05:16:15;;;;;;;30.17;10.67;;;4.40;99.90;;;;;;4892336;29;38969;-77
2023/04/14 05:18:42;;;;;;;30.30;11.27;;;4.40;99.90;;;;;;4875780;29;38077;-77
2023/04/14 05:21:11;;;;;;;31.23;9.87;;;4.40;99.90;;;;;;4876673;29;37242;-78
2023/04/14 05:23:40;;;;;;;33.27;10.53;;;4.50;99.90;;;;;;4899806;29;39140;-78
2023/04/14 05:26:07;;;;;;;28.10;10.23;;;4.50;99.90;;;;;;4896625;29;39379;-79
2023/04/14 05:28:33;;;;;;;22.47;10.00;;;4.60;99.90;;;;;;4883731;29;37413;-78
2023/04/14 05:31:00;;;;;;;22.77;9.83;;;4.60;99.90;;;;;;4874047;29;36299;-77
2023/04/14 05:33:26;;;;;;;25.57;9.47;;;4.60;99.90;;;;;;4887716;29;39818;-73
2023/04/14 05:35:52;;;;;;;24.13;9.27;;;4.60;99.90;;;;;;4886566;29;38657;-77
2023/04/14 05:38:19;;;;;;;24.33;9.73;;;4.50;99.90;;;;;;4883872;29;36444;-81
2023/04/14 05:40:46;;;;;;;25.40;9.33;;;4.60;99.90;;;;;;4880151;29;35940;-78
2023/04/14 05:43:13;;;;;;;21.20;9.80;;;4.60;99.90;;;;;;4880864;29;37573;-79
2023/04/14 05:45:40;;;;;;;30.90;11.17;;;4.60;99.90;;;;;;4889866;29;37302;-78
2023/04/14 05:48:07;;;;;;;33.60;10.67;;;4.60;99.90;;;;;;4884531;29;37614;-78
2023/04/14 05:50:34;;;;;;;26.37;10.57;;;4.60;99.90;;;;;;4880229;29;36263;-78
2023/04/14 05:53:00;;;;;;;24.97;11.30;;;4.70;99.90;;;;;;4894261;29;38891;-77
2023/04/14 05:55:26;;;;;;;27.67;12.37;;;4.70;99.90;;;;;;4890658;29;39640;-77
2023/04/14 05:57:52;;;;;;;25.67;11.23;;;4.70;99.90;;;;;;4889943;29;38847;-78
2023/04/14 06:00:19;;;;;;;28.97;10.93;;;4.70;99.90;;;;;;4888995;29;37738;-77
2023/04/14 06:02:45;;;;;;;22.97;10.53;;;4.80;99.90;;;;;;4905839;29;38879;-77
2023/04/14 06:05:11;;;;;;;19.97;9.93;;;4.80;99.90;;;;;;4914691;29;38500;-76
2023/04/14 06:07:40;;;;;;;19.13;8.87;;;4.80;99.90;;;;;;4913218;29;37345;-74
2023/04/14 06:10:07;;;;;;;19.13;9.60;;;4.90;99.90;;;;;;4918841;29;37120;-74
2023/04/14 06:12:34;;;;;;;18.10;9.83;;;5.00;99.90;;;;;;4912238;29;39946;-77
2023/04/14 06:15:00;;;;;;;21.67;9.20;;;5.00;99.90;;;;;;4908879;29;37971;-76
2023/04/14 06:17:27;;;;;;;22.80;10.33;;;5.10;99.90;;;;;;4900606;29;37133;-76
2023/04/14 06:19:53;;;;;;;17.63;9.10;;;5.20;99.90;;;;;;4895465;29;38161;-76
2023/04/14 06:22:19;;;;;;;17.80;8.57;;;5.20;99.90;;;;;;4910344;29;38529;-77
2023/04/14 06:24:45;;;;;;;19.40;8.73;;;5.30;99.90;;;;;;4903954;29;38924;-76
2023/04/14 06:27:11;;;;;;;19.13;9.50;;;5.40;99.90;;;;;;4901087;29;37207;-76
2023/04/14 06:29:38;;;;;;;19.63;8.90;;;5.50;99.90;;;;;;4904783;29;36127;-77
2023/04/14 06:32:12;;;;;;;16.07;8.63;;;5.60;99.90;;;;;;5045011;27;20410;-77
2023/04/14 06:34:38;;;;;;;20.43;8.47;;;5.70;99.90;;;;;;5041257;28;36504;-77
2023/04/14 06:37:05;;;;;;;17.33;8.47;;;5.70;99.90;;;;;;5038973;28;35832;-76
2023/04/14 06:39:31;;;;;;;15.10;7.50;;;5.80;99.90;;;;;;5041326;28;38820;-76
2023/04/14 06:41:57;;;;;;;16.47;7.10;;;5.90;99.90;;;;;;5041362;28;37006;-76
2023/04/14 06:44:24;;;;;;;11.90;6.20;;;6.10;99.90;;;;;;5042294;28;37581;-76
2023/04/14 06:46:50;;;;;;;15.30;6.57;;;6.20;99.90;;;;;;5058450;28;35906;-76
2023/04/14 06:49:18;;;;;;;16.83;6.77;;;6.30;99.90;;;;;;5041175;28;38022;-76
2023/04/14 06:51:44;;;;;;;17.27;7.27;;;6.50;99.90;;;;;;5039213;28;37203;-76
2023/04/14 06:54:10;;;;;;;11.53;5.53;;;6.50;99.90;;;;;;5039041;28;38288;-75
2023/04/14 06:56:36;;;;;;;11.47;6.03;;;6.60;99.90;;;;;;5039704;28;36021;-75
2023/04/14 06:59:02;;;;;;;13.63;4.80;;;6.70;99.90;;;;;;5038135;28;38187;-76
2023/04/14 07:01:28;;;;;;;13.20;5.33;;;6.80;99.90;;;;;;5037393;28;38201;-76
2023/04/14 07:03:55;;;;;;;11.43;5.37;;;6.90;99.90;;;;;;5039611;28;38520;-76
2023/04/14 07:06:21;;;;;;;14.57;5.37;;;7.00;99.90;;;;;;5039817;28;37168;-76
2023/04/14 07:08:47;;;;;;;14.30;5.27;;;7.10;99.90;;;;;;5035800;28;38088;-74
2023/04/14 07:11:13;;;;;;;13.10;4.60;;;7.30;99.90;;;;;;5038106;28;38355;-75
2023/04/14 07:13:40;;;;;;;8.67;4.03;;;7.30;99.90;;;;;;5034896;28;37698;-75
2023/04/14 07:16:06;;;;;;;8.27;4.00;;;7.40;99.90;;;;;;5036329;28;37105;-74
2023/04/14 07:18:33;;;;;;;10.20;4.03;;;7.60;99.90;;;;;;5041867;28;38385;-74
2023/04/14 07:20:59;;;;;;;10.00;4.60;;;7.70;99.90;;;;;;5038955;28;38348;-74
2023/04/14 07:23:26;;;;;;;11.50;4.07;;;7.90;99.90;;;;;;5034930;28;37956;-74
2023/04/14 07:25:54;;;;;;;11.57;4.50;;;7.90;99.90;;;;;;5051849;28;36124;-75
2023/04/14 07:28:22;;;;;;;11.40;4.27;;;8.00;99.90;;;;;;5037774;28;39186;-75
2023/04/14 07:30:49;;;;;;;9.33;3.73;;;8.00;99.90;;;;;;5030665;28;38267;-75
2023/04/14 07:33:17;;;;;;;7.63;3.70;;;8.20;99.90;;;;;;5036683;28;36353;-74
2023/04/14 07:35:44;;;;;;;10.20;3.83;;;8.30;99.90;;;;;;5039095;28;36337;-75
2023/04/14 07:38:10;;;;;;;14.80;3.63;;;8.40;99.90;;;;;;5037139;28;39626;-75
2023/04/14 07:40:36;;;;;;;7.03;3.67;;;8.60;99.90;;;;;;5042683;28;38442;-75
2023/04/14 07:43:02;;;;;;;8.93;3.30;;;8.70;99.90;;;;;;5030825;28;37827;-74
2023/04/14 07:45:29;;;;;;;9.10;2.87;;;8.70;99.90;;;;;;5028864;28;36407;-73
2023/04/14 07:47:56;;;;;;;6.13;3.63;;;8.80;99.90;;;;;;5028241;28;38666;-74
2023/04/14 07:50:24;;;;;;;9.13;3.53;;;9.00;99.90;;;;;;5027803;28;37633;-74
2023/04/14 07:52:50;;;;;;;8.97;3.47;;;9.20;99.90;;;;;;5013703;28;36291;-74
2023/04/14 07:55:16;;;;;;;7.67;2.90;;;9.40;99.90;;;;;;5020457;28;37124;-74
2023/04/14 07:57:42;;;;;;;8.17;3.50;;;9.50;99.90;;;;;;5027850;28;38013;-74
2023/04/14 08:00:09;;;;;;;7.93;3.10;;;9.60;99.90;;;;;;5020325;28;37044;-72
2023/04/14 08:02:36;;;;;;;7.77;2.90;;;9.70;99.90;;;;;;5022876;28;36591;-75
2023/04/14 08:05:03;;;;;;;8.67;3.50;;;9.80;99.90;;;;;;5023131;28;33760;-75
2023/04/14 08:07:29;;;;;;;8.63;2.97;;;9.80;99.90;;;;;;5024507;28;47639;-73
2023/04/14 08:09:55;;;;;;;7.07;3.13;;;9.70;99.90;;;;;;5027063;28;38046;-72
2023/04/14 08:12:23;;;;;;;8.70;2.23;;;9.80;99.90;;;;;;5030936;28;38574;-72
2023/04/14 08:14:50;;;;;;;7.40;2.05;;;10.00;99.90;;;;;;5020943;28;37381;-73
2023/04/14 08:17:16;;;;;;;12.93;2.38;;;10.10;99.90;;;;;;5022077;28;37777;-72
2023/04/14 08:19:42;;;;;;;7.67;1.60;;;10.00;99.90;;;;;;5021261;28;37450;-73
2023/04/14 08:22:08;;;;;;;9.20;1.75;;;10.10;99.90;;;;;;5024567;28;37723;-73
2023/04/14 08:24:34;;;;;;;5.15;2.75;;;10.30;99.90;;;;;;5026277;28;36117;-73
2023/04/14 08:27:01;;;;;;;9.55;3.40;;;10.50;99.90;;;;;;5022645;28;38674;-74
2023/04/14 08:29:27;;;;;;;6.70;2.70;;;10.70;99.90;;;;;;5026056;28;39252;-74
2023/04/14 08:31:53;;;;;;;7.38;3.03;;;10.90;99.90;;;;;;5020697;28;36768;-75
2023/04/14 08:34:19;;;;;;;10.82;3.45;;;10.90;99.90;;;;;;5025266;28;34282;-75
2023/04/14 08:36:46;;;;;;;12.52;3.28;;;11.10;99.90;;;;;;5025831;28;38516;-76
2023/04/14 08:39:13;;;;;;;9.02;3.22;;;11.20;99.90;;;;;;5029127;28;38576;-76
2023/04/14 08:41:40;;;;;;;10.18;3.65;;;11.00;99.90;;;;;;5027473;28;38121;-76
2023/04/14 08:44:07;;;;;;;8.85;3.03;;;11.10;99.90;;;;;;5022838;28;36388;-76
2023/04/14 08:46:35;;;;;;;6.78;2.75;;;11.10;99.90;;;;;;5024858;28;37673;-75
2023/04/14 08:49:06;;;;;;;7.57;2.70;;;11.30;99.90;;;;;;5016375;28;37365;-76
2023/04/14 08:51:38;;;;;;;8.57;3.08;;;11.40;99.90;;;;;;5028768;28;48618;-76
2023/04/14 08:54:07;;;;;;;;;;;11.50;99.90;;;;;;5019523;28;37333;-76
2023/04/14 08:56:41;;;;;;;7.43;2.42;;;11.60;99.90;;;;;;5027252;28;39225;-76
2023/04/14 08:59:10;;;;;;;7.35;2.25;;;11.60;99.90;;;;;;5034554;28;37146;-76
2023/04/14 09:01:37;;;;;;;7.60;2.85;;;11.70;99.90;;;;;;5026247;28;37336;-76
2023/04/14 09:04:04;;;;;;;3.85;1.85;;;12.00;99.90;;;;;;5022762;28;36060;-76
2023/04/14 09:06:31;;;;;;;8.02;1.77;;;12.10;99.90;;;;;;5027858;28;39649;-75
2023/04/14 09:09:02;;;;;;;7.55;2.00;;;12.00;99.90;;;;;;5037093;28;38701;-73
2023/04/14 09:11:29;;;;;;;9.63;1.92;;;12.20;99.90;;;;;;5019034;28;46589;-75
2023/04/14 09:13:58;;;;;;;4.32;1.77;;;12.50;99.90;;;;;;5015451;28;37207;-75
2023/04/14 09:16:25;;;;;;;8.20;2.08;;;12.60;99.90;;;;;;5020790;28;38652;-76
2023/04/14 09:18:53;;;;;;;5.38;1.85;;;12.70;99.90;;;;;;5021797;28;36814;-75
2023/04/14 09:21:20;;;;;;;9.43;2.10;;;12.60;99.90;;;;;;5020468;28;37418;-75
2023/04/14 09:23:46;;;;;;;10.00;1.80;;;12.70;99.90;;;;;;5022990;28;37119;-75
2023/04/14 09:26:13;;;;;;;5.55;1.83;;;12.50;99.90;;;;;;5024041;28;38124;-76
2023/04/14 09:28:40;;;;;;;4.43;1.67;;;12.50;99.90;;;;;;5018644;28;38986;-75
2023/04/14 09:31:07;;;;;;;5.05;1.77;;;12.80;99.90;;;;;;5023458;28;37336;-75
2023/04/14 09:33:38;;;;;;;14.38;2.63;;;13.00;99.90;;;;;;5019260;28;36108;-76
2023/04/14 09:36:04;;;;;;;8.13;2.55;;;12.80;99.90;;;;;;5023818;28;38119;-75
2023/04/14 09:38:35;;;;;;;10.52;3.10;;;12.70;99.90;;;;;;5026084;28;37743;-75
2023/04/14 09:41:04;;;;;;;6.65;2.42;;;12.50;99.90;;;;;;5026926;28;38339;-76
2023/04/14 09:43:31;;;;;;;10.52;3.13;;;12.60;99.90;;;;;;5024105;28;37800;-75
2023/04/14 09:46:03;;;;;;;7.00;2.90;;;12.70;99.90;;;;;;5024608;28;38069;-75
2023/04/14 09:48:29;;;;;;;;;;;12.50;99.90;;;;;;5015158;28;47367;-75
2023/04/14 09:51:08;;;;;;;9.20;2.80;;;12.60;99.90;;;;;;5017070;28;36951;-76
2023/04/14 09:53:39;;;;;;;8.35;2.70;;;12.70;99.90;;;;;;5015745;28;48855;-74
2023/04/14 09:56:07;;;;;;;8.00;2.58;;;12.90;99.90;;;;;;5017495;28;38506;-75
2023/04/14 09:58:35;;;;;;;5.60;2.10;;;13.20;99.90;;;;;;5020263;28;37581;-75
2023/04/14 10:01:11;;;;;;;4.70;2.17;;;13.60;99.90;;;;;;5017856;28;38324;-75
2023/04/14 10:03:40;;;;;;;6.05;2.00;;;13.70;99.90;;;;;;5016208;28;47895;-75
2023/04/14 10:06:09;;;;;;;5.70;1.95;;;13.90;99.90;;;;;;5051977;28;37675;-75
2023/04/14 10:08:37;;;;;;;6.20;1.83;;;13.90;99.90;;;;;;5012751;28;38468;-75
2023/04/14 10:11:21;;;;;;;8.25;1.63;;;13.90;99.90;;;;;;5052517;28;35094;-75
2023/04/14 10:13:53;;;;;;;8.25;1.50;;;13.90;99.90;;;;;;5015594;28;36233;-75
2023/04/14 10:16:19;;;;;;;7.33;2.13;;;13.70;99.90;;;;;;5019386;28;38786;-75
2023/04/14 10:18:46;;;;;;;4.70;1.83;;;13.90;99.90;;;;;;5020947;28;38622;-75
2023/04/14 10:21:13;;;;;;;8.95;1.73;;;14.00;99.90;;;;;;5021895;28;37423;-75
2023/04/14 10:23:40;;;;;;;7.65;2.50;;;13.80;99.90;;;;;;5025680;28;38234;-75
2023/04/14 10:26:08;;;;;;;6.82;1.65;;;13.20;99.90;;;;;;5016136;28;38877;-75
2023/04/14 10:28:39;;;;;;;5.57;1.95;;;13.60;99.90;;;;;;5023851;28;37910;-75
2023/04/14 10:31:12;;;;;;;6.45;2.30;;;13.90;99.90;;;;;;5040145;28;36661;-74
2023/04/14 10:33:38;;;;;;;5.53;1.70;;;13.80;99.90;;;;;;5019046;28;37051;-75
2023/04/14 10:36:05;;;;;;;3.65;1.48;;;13.40;99.90;;;;;;5020108;28;40027;-75
2023/04/14 10:38:42;;;;;;;5.13;1.60;;;13.30;99.90;;;;;;5015133;28;39506;-75
2023/04/14 10:41:10;;;;;;;7.03;2.20;;;13.20;99.90;;;;;;5015328;28;38048;-74
2023/04/14 10:43:37;;;;;;;5.55;1.88;;;13.10;99.90;;;;;;5034631;28;36572;-73
2023/04/14 10:46:04;;;;;;;4.10;1.85;;;13.20;99.90;;;;;;5023742;28;38019;-75
2023/04/14 10:48:42;;;;;;;4.10;1.55;;;13.00;99.90;;;;;;5022112;28;38498;-75
2023/04/14 10:51:09;;;;;;;5.55;1.50;;;13.20;99.90;;;;;;5018102;28;37883;-75
2023/04/14 10:53:43;;;;;;;4.63;1.23;;;13.80;99.90;;;;;;5030358;28;38203;-75
2023/04/14 10:56:10;;;;;;;3.65;1.50;;;14.00;99.90;;;;;;5029289;28;39584;-75
2023/04/14 10:58:36;;;;;;;4.40;1.30;;;13.70;99.90;;;;;;5029707;28;38099;-75
2023/04/14 11:01:41;;;;;;;5.18;1.60;;;13.70;99.90;;;;;;5015264;28;36958;-75
2023/04/14 11:04:19;;;;;;;8.60;1.60;;;13.70;99.90;;;;;;4967582;28;37205;-75
2023/04/14 11:06:51;;;;;;;3.58;1.40;;;14.10;99.90;;;;;;4979235;28;42409;-75
2023/04/14 11:09:35;;;;;;;6.00;1.67;;;13.80;99.90;;;;;;5000213;28;37825;-75
2023/04/14 11:12:04;;;;;;;3.08;1.40;;;14.00;99.90;;;;;;5025112;28;37635;-75
2023/04/14 11:14:31;;;;;;;4.22;1.58;;;14.40;99.90;;;;;;5024973;28;50044;-75
2023/04/14 11:17:03;;;;;;;4.38;1.45;;;14.70;99.90;;;;;;5023828;28;39429;-73
2023/04/14 11:19:30;;;;;;;4.65;1.48;;;14.80;99.90;;;;;;5018510;28;47323;-74
2023/04/14 11:21:56;;;;;;;5.03;1.35;;;14.40;99.90;;;;;;5023566;28;38847;-74
2023/04/14 11:24:23;;;;;;;6.15;1.70;;;14.10;99.90;;;;;;5025215;28;36559;-76
2023/04/14 11:26:56;;;;;;;4.18;1.88;;;13.60;99.90;;;;;;5025924;28;38529;-75
2023/04/14 11:29:22;;;;;;;6.78;1.88;;;14.00;99.90;;;;;;5017883;28;38576;-75
2023/04/14 11:32:05;;;;;;;5.50;1.50;;;14.40;99.90;;;;;;5017743;28;37353;-76
2023/04/14 11:34:32;;;;;;;;;;;14.20;99.90;;;;;;5017659;28;47247;-75
2023/04/14 11:37:00;;;;;;;3.92;1.23;;;14.30;99.90;;;;;;5030365;28;38952;-74
2023/04/14 11:39:28;;;;;;;4.65;1.50;;;14.40;99.90;;;;;;5020009;28;39609;-74
2023/04/14 11:41:58;;;;;;;4.13;1.35;;;14.50;99.90;;;;;;5015364;28;36718;-73
2023/04/14 11:44:25;;;;;;;5.85;1.08;;;14.60;99.90;;;;;;5021013;28;38178;-73
2023/04/14 11:46:51;;;;;;;3.22;1.23;;;15.00;99.90;;;;;;5024370;28;38636;-73
2023/04/14 11:49:17;;;;;;;1.98;0.70;;;15.20;99.90;;;;;;5023491;28;38190;-73
2023/04/14 11:51:43;;;;;;;3.75;1.13;;;15.40;99.90;;;;;;5026624;28;37613;-73
2023/04/14 11:54:11;;;;;;;4.22;1.60;;;15.30;99.90;;;;;;5055749;28;35928;-73
2023/04/14 11:56:38;;;;;;;5.55;1.20;;;15.20;99.90;;;;;;5027576;28;38975;-72
2023/04/14 11:59:05;;;;;;;1.77;0.98;;;15.40;99.90;;;;;;5019186;28;38622;-74
2023/04/14 12:01:31;;;;;;;2.80;0.90;;;16.00;99.90;;;;;;5021290;28;37359;-74
2023/04/14 12:03:57;;;;;;;4.57;1.48;;;15.70;99.90;;;;;;5023947;28;37427;-74
2023/04/14 12:06:26;;;;;;;6.75;1.38;;;15.60;99.90;;;;;;5020900;28;37904;-73
2023/04/14 12:09:02;;;;;;;3.25;1.20;;;15.00;99.90;;;;;;5024329;28;38090;-74
2023/04/14 12:11:28;;;;;;;3.95;1.05;;;15.30;99.90;;;;;;5034231;28;47286;-74
2023/04/14 12:13:55;;;;;;;2.83;1.00;;;16.10;99.90;;;;;;5021630;28;36135;-76
2023/04/14 12:16:22;;;;;;;1.83;0.88;;;16.70;99.90;;;;;;5020634;28;38932;-76
2023/04/14 12:18:48;;;;;;;6.70;1.48;;;17.00;99.90;;;;;;5016932;28;39458;-76
2023/04/14 12:21:18;;;;;;;4.50;1.00;;;17.10;99.90;;;;;;5017617;28;36477;-76
2023/04/14 12:23:48;;;;;;;4.18;1.10;;;17.10;99.90;;;;;;5026612;28;34348;-75
2023/04/14 12:26:15;;;;;;;2.85;1.10;;;16.10;99.90;;;;;;5019918;28;37910;-75
2023/04/14 12:28:41;;;;;;;2.65;0.90;;;15.80;99.90;;;;;;5022686;28;37983;-75
2023/04/14 12:31:08;;;;;;;2.88;1.10;;;16.20;99.90;;;;;;5021010;28;38209;-75
2023/04/14 12:33:34;;;;;;;3.75;0.90;;;16.50;99.90;;;;;;5025287;28;38030;-75
2023/04/14 12:36:10;;;;;;;1.65;0.82;;;16.50;99.90;;;;;;5022024;28;38036;-75
2023/04/14 12:38:37;;;;;;;2.35;0.85;;;17.00;99.90;;;;;;5026311;28;49124;-75
2023/04/14 12:41:04;;;;;;;4.57;0.90;;;16.50;99.90;;;;;;5027744;28;38603;-75
2023/04/14 12:43:39;;;;;;;2.70;1.13;;;16.90;99.90;;;;;;5026518;28;34839;-75
2023/04/14 12:46:08;;;;;;;1.48;0.90;;;16.80;99.90;;;;;;5023485;28;38806;-75
2023/04/14 12:48:45;;;;;;;6.18;1.00;;;16.10;99.90;;;;;;5023503;28;39458;-75
2023/04/14 12:51:16;;;;;;;3.85;1.30;;;15.50;99.90;;;;;;5023244;28;36611;-75
2023/04/14 12:53:44;;;;;;;3.25;0.90;;;15.40;99.90;;;;;;5023473;28;36222;-75
2023/04/14 12:56:15;;;;;;;2.75;0.93;;;15.90;99.90;;;;;;5021417;28;37793;-75
2023/04/14 12:58:45;;;;;;;4.72;0.80;;;16.50;99.90;;;;;;5019953;28;37786;-75